Time;durP1;ratioP1;P1;durP2;ratioP2;P2;SDS_P1;SDS_P2;PMS_P1;PMS_P2;Temp;Humidity;BMP_temperature;BMP_pressure;BME280_temperature;BME280_humidity;BME280_pressure;Samples;Min_cycle;Max_cycle;Signal;HPM_P1;HPM_P2
2023/02/02 00:00:48;;;;;;;8.60;2.15;;;3.20;99.90;;;;;;2603524;54;20741;31
2023/02/02 00:03:30;;;;;;;10.75;2.60;;;3.20;99.90;;;;;;2603427;54;20033;31
2023/02/02 00:06:37;;;;;;;6.55;2.20;;;3.10;99.90;;;;;;2603351;54;20030;31
2023/02/02 00:09:27;;;;;;;9.50;2.42;;;3.10;99.90;;;;;;2603349;54;21451;31
2023/02/02 00:12:06;;;;;;;10.07;1.80;;;3.20;99.90;;;;;;2622024;46;20029;31
2023/02/02 00:14:44;;;;;;;17.00;2.67;;;3.10;99.90;;;;;;2602763;54;21192;31
2023/02/02 00:17:34;;;;;;;9.20;1.92;;;3.10;99.90;;;;;;2602647;54;20286;31
2023/02/02 00:20:26;;;;;;;11.50;2.53;;;3.10;99.90;;;;;;2603433;54;20030;31
2023/02/02 00:23:03;;;;;;;8.27;1.88;;;3.10;99.90;;;;;;2603420;54;20895;31
2023/02/02 00:25:46;;;;;;;10.05;2.00;;;3.00;99.90;;;;;;2603569;54;20057;31
2023/02/02 00:34:08;;;;;;;16.98;2.53;;;3.10;99.90;;;;;;2603593;54;20033;31
2023/02/02 00:36:49;;;;;;;14.05;2.00;;;3.10;99.90;;;;;;2603323;54;20033;31
2023/02/02 00:42:24;;;;;;;13.85;2.22;;;3.10;99.90;;;;;;2621784;46;20096;31
2023/02/02 00:45:15;;;;;;;12.98;1.80;;;3.10;99.90;;;;;;2603458;54;20034;31
2023/02/02 00:51:16;;;;;;;12.95;2.35;;;3.20;99.90;;;;;;2701888;39;20489;31
2023/02/02 00:53:52;;;;;;;13.15;4.00;;;3.20;99.90;;;;;;2621384;46;20116;31
2023/02/02 00:56:29;;;;;;;10.27;1.90;;;3.20;99.90;;;;;;2603410;54;20888;31
2023/02/02 00:59:08;;;;;;;9.15;1.90;;;3.10;99.90;;;;;;2603049;54;20805;31
2023/02/02 01:01:46;;;;;;;8.77;1.98;;;3.20;99.90;;;;;;2603429;54;20084;31
2023/02/02 01:04:25;;;;;;;11.57;2.10;;;3.20;99.90;;;;;;2603349;54;20096;31
2023/02/02 01:13:03;;;;;;;9.05;1.95;;;3.20;99.90;;;;;;2603430;54;20837;31
2023/02/02 01:15:44;;;;;;;10.27;1.98;;;3.10;99.90;;;;;;2603325;54;20026;31
2023/02/02 01:21:13;;;;;;;9.45;1.98;;;3.20;99.90;;;;;;2621433;46;20918;31
2023/02/02 01:24:04;;;;;;;6.25;1.40;;;3.20;99.90;;;;;;2603119;54;20147;31
2023/02/02 01:30:11;;;;;;;7.30;1.85;;;3.20;99.90;;;;;;2603249;54;20022;31
2023/02/02 01:32:53;;;;;;;10.57;2.08;;;3.20;99.90;;;;;;2602880;54;20029;31
2023/02/02 01:35:32;;;;;;;8.80;2.03;;;3.30;99.90;;;;;;2603211;54;20049;31
2023/02/02 01:38:25;;;;;;;;;;;;;;;;;;;;;
2023/02/02 01:41:10;;;;;;;12.85;1.70;;;3.30;99.90;;;;;;2603398;54;20035;31
2023/02/02 01:44:29;;;;;;;14.40;2.45;;;3.30;99.90;;;;;;2603110;54;20108;31
2023/02/02 01:50:00;;;;;;;12.43;2.20;;;3.30;99.90;;;;;;2603359;54;20119;31
2023/02/02 01:52:52;;;;;;;14.43;2.30;;;3.30;99.90;;;;;;2621823;46;20643;31
2023/02/02 01:55:35;;;;;;;11.70;2.25;;;3.30;99.90;;;;;;2602902;54;20891;31
2023/02/02 01:58:17;;;;;;;9.27;1.75;;;3.30;99.90;;;;;;2603540;54;20033;31
2023/02/02 02:00:52;;;;;;;10.10;1.93;;;3.30;99.90;;;;;;2603153;54;20900;31
2023/02/02 02:06:05;;;;;;;12.43;2.10;;;3.40;99.90;;;;;;2603006;54;20049;31
2023/02/02 02:11:48;;;;;;;7.07;1.55;;;3.40;99.90;;;;;;2621894;47;20784;31
2023/02/02 02:17:44;;;;;;;11.80;1.90;;;3.40;99.90;;;;;;2603795;54;20638;31
2023/02/02 02:28:13;;;;;;;10.10;1.80;;;3.40;99.90;;;;;;2603905;54;20826;31
2023/02/02 02:31:26;;;;;;;7.43;1.60;;;3.50;99.90;;;;;;2603741;54;20891;31
2023/02/02 02:34:10;;;;;;;13.65;1.85;;;3.50;99.90;;;;;;2702362;39;20709;31
2023/02/02 02:36:55;;;;;;;12.75;1.70;;;3.50;99.90;;;;;;2603990;54;20751;31
2023/02/02 02:39:35;;;;;;;5.07;1.23;;;3.50;99.90;;;;;;2603919;54;20046;31
2023/02/02 02:42:27;;;;;;;8.50;1.50;;;3.50;99.90;;;;;;2792641;31;20618;31
2023/02/02 02:45:16;;;;;;;10.35;1.80;;;3.50;99.90;;;;;;2603712;54;20903;31
2023/02/02 02:47:59;;;;;;;6.03;1.10;;;3.50;99.90;;;;;;2603891;54;20160;31
2023/02/02 02:50:43;;;;;;;8.57;1.73;;;3.50;99.90;;;;;;2603950;54;20882;31
2023/02/02 02:53:27;;;;;;;8.77;2.05;;;3.50;99.90;;;;;;2603960;54;20553;31
2023/02/02 02:56:12;;;;;;;8.90;1.67;;;3.50;99.90;;;;;;2622080;46;20034;31
2023/02/02 02:59:06;;;;;;;;;;;;;;;;;;;;;
2023/02/02 03:02:03;;;;;;;10.52;1.67;;;3.60;99.90;;;;;;2603657;54;20258;31
2023/02/02 03:08:38;;;;;;;11.00;1.67;;;3.50;99.90;;;;;;2603604;54;20666;31
2023/02/02 03:11:51;;;;;;;9.60;1.38;;;3.60;99.90;;;;;;2622038;46;20086;31
2023/02/02 03:14:35;;;;;;;;;;;3.60;99.90;;;;;;2702422;39;21457;31
2023/02/02 03:23:49;;;;;;;10.60;1.73;;;3.60;99.90;;;;;;2608160;47;20892;31
2023/02/02 03:27:02;;;;;;;12.10;1.83;;;3.60;99.90;;;;;;2603579;54;21240;31
2023/02/02 03:30:06;;;;;;;13.65;3.00;;;3.60;99.90;;;;;;2603612;54;20237;31
2023/02/02 03:32:56;;;;;;;5.90;1.60;;;3.60;99.90;;;;;;2621425;46;20022;31
2023/02/02 03:38:44;;;;;;;;;;;;;;;;;;;;;
2023/02/02 03:41:28;;;;;;;9.00;2.20;;;3.70;99.90;;;;;;2621981;46;20026;31
2023/02/02 03:44:26;;;;;;;13.18;2.05;;;3.60;99.90;;;;;;2621900;46;20541;31
2023/02/02 04:03:18;;;;;;;13.70;1.90;;;3.70;99.90;;;;;;2621993;46;20108;31
2023/02/02 04:05:58;;;;;;;;;;;3.70;99.90;;;;;;2622219;46;20026;31
2023/02/02 04:08:49;;;;;;;9.75;1.58;;;3.70;99.90;;;;;;2621532;46;20764;31
2023/02/02 04:11:47;;;;;;;10.00;1.80;;;3.80;99.90;;;;;;2602808;54;20046;31
2023/02/02 04:14:46;;;;;;;13.60;2.30;;;3.80;99.90;;;;;;2621667;46;21208;31
2023/02/02 04:23:27;;;;;;;11.97;1.43;;;3.80;99.90;;;;;;2603542;54;20538;31
2023/02/02 04:30:34;;;;;;;;;;;3.80;99.90;;;;;;2603450;54;20034;31
2023/02/02 04:33:20;;;;;;;12.93;2.30;;;3.90;99.90;;;;;;2603032;54;19934;31
2023/02/02 04:36:17;;;;;;;7.85;1.30;;;3.90;99.90;;;;;;2603598;54;21170;31
2023/02/02 04:39:05;;;;;;;6.47;1.60;;;3.90;99.90;;;;;;2603576;54;20830;31
2023/02/02 04:41:55;;;;;;;10.27;2.13;;;3.90;99.90;;;;;;2603363;54;20023;31
2023/02/02 04:47:43;;;;;;;14.90;1.95;;;3.90;99.90;;;;;;2603643;54;20904;31
2023/02/02 04:50:27;;;;;;;10.45;2.17;;;3.90;99.90;;;;;;2621703;46;20100;31
2023/02/02 04:53:22;;;;;;;10.80;1.95;;;3.90;99.90;;;;;;2621716;46;20874;31
2023/02/02 04:56:17;;;;;;;12.55;1.35;;;3.90;99.90;;;;;;2621571;46;20898;31
2023/02/02 04:59:20;;;;;;;9.77;1.95;;;4.00;99.90;;;;;;2622033;46;20038;31
2023/02/02 05:02:03;;;;;;;5.40;1.30;;;4.00;99.90;;;;;;2603476;54;20888;31
2023/02/02 05:04:48;;;;;;;6.40;1.25;;;3.90;99.90;;;;;;2603350;54;20809;31
2023/02/02 05:13:49;;;;;;;6.95;1.83;;;4.00;99.90;;;;;;2606644;46;20929;31
2023/02/02 05:16:41;;;;;;;7.85;1.35;;;4.00;99.90;;;;;;2603163;54;20557;31
2023/02/02 05:22:01;;;;;;;7.00;2.50;;;4.00;99.90;;;;;;2621614;46;19942;31
2023/02/02 05:27:56;;;;;;;13.95;2.47;;;4.00;99.90;;;;;;2603291;54;20089;31
2023/02/02 05:31:00;;;;;;;;;;;;;;;;;;;;;
2023/02/02 05:33:46;;;;;;;8.95;1.23;;;4.00;99.90;;;;;;2603044;54;20549;31
2023/02/02 05:36:28;;;;;;;8.00;1.40;;;4.20;99.90;;;;;;2603035;54;20089;31
2023/02/02 05:39:08;;;;;;;7.32;1.30;;;4.10;99.90;;;;;;2603129;54;20818;31
2023/02/02 05:41:50;;;;;;;9.47;1.60;;;4.10;99.90;;;;;;2602364;54;20877;31
2023/02/02 05:44:51;;;;;;;11.85;2.10;;;4.10;99.90;;;;;;2603431;54;20238;31
2023/02/02 05:51:18;;;;;;;8.98;1.50;;;4.10;99.90;;;;;;2720079;39;20435;31
2023/02/02 05:53:55;;;;;;;6.85;1.38;;;4.10;99.90;;;;;;2603023;54;20026;31
2023/02/02 05:56:36;;;;;;;8.87;1.60;;;4.10;99.90;;;;;;2603146;54;20887;31
2023/02/02 05:59:16;;;;;;;8.73;1.42;;;4.10;99.90;;;;;;2603279;54;20241;31
2023/02/02 06:02:11;;;;;;;10.70;2.15;;;4.10;99.90;;;;;;2603011;54;20898;31
2023/02/02 06:05:02;;;;;;;11.20;2.63;;;4.10;99.90;;;;;;2606361;46;20026;31
2023/02/02 06:07:43;;;;;;;11.07;2.23;;;4.10;99.90;;;;;;2603111;54;20908;31
2023/02/02 06:15:58;;;;;;;11.55;1.60;;;4.10;99.90;;;;;;2603059;54;20585;31
2023/02/02 06:18:33;;;;;;;8.48;2.20;;;4.10;99.90;;;;;;2621499;47;20026;31
2023/02/02 06:21:11;;;;;;;10.02;2.38;;;4.10;99.90;;;;;;2603119;54;20081;31
2023/02/02 06:23:52;;;;;;;14.77;3.80;;;4.10;99.90;;;;;;2603126;54;20044;31
2023/02/02 06:45:00;;;;;;;9.85;2.10;;;3.90;99.90;;;;;;2603010;54;20073;31
2023/02/02 06:47:45;;;;;;;9.15;2.15;;;3.90;99.90;;;;;;2602863;54;20811;31
2023/02/02 06:50:37;;;;;;;6.75;1.45;;;3.80;99.90;;;;;;2602679;54;20042;31
2023/02/02 06:53:21;;;;;;;8.43;1.80;;;3.80;99.90;;;;;;2602944;54;20081;31
2023/02/02 06:56:17;;;;;;;6.50;1.90;;;3.80;99.90;;;;;;2602842;54;20752;31
2023/02/02 06:59:07;;;;;;;11.55;2.38;;;3.80;99.90;;;;;;2603807;54;20726;31
2023/02/02 07:05:27;;;;;;;5.05;1.10;;;3.80;99.90;;;;;;2622435;46;20048;31
2023/02/02 07:11:12;;;;;;;12.27;2.55;;;3.80;99.90;;;;;;2621230;46;20242;31
2023/02/02 07:14:00;;;;;;;10.25;2.65;;;3.80;99.90;;;;;;2603551;54;20685;31
2023/02/02 07:16:51;;;;;;;11.70;2.83;;;3.90;99.90;;;;;;2603897;54;20863;31
2023/02/02 07:19:51;;;;;;;6.47;2.22;;;3.90;99.90;;;;;;2602954;54;20116;31
2023/02/02 07:22:31;;;;;;;5.75;1.35;;;3.90;99.90;;;;;;2622200;46;20556;31
2023/02/02 07:28:23;;;;;;;4.57;1.02;;;3.90;99.90;;;;;;2603843;54;20553;31
2023/02/02 07:31:10;;;;;;;6.05;1.10;;;3.90;99.90;;;;;;2603630;54;20030;31
2023/02/02 07:39:57;;;;;;;5.83;1.90;;;3.90;99.90;;;;;;2603688;54;21000;31
2023/02/02 07:42:49;;;;;;;5.35;1.00;;;3.90;99.90;;;;;;2622203;46;21051;31
2023/02/02 07:55:12;;;;;;;6.10;1.40;;;4.00;99.90;;;;;;2702253;39;20762;31
2023/02/02 07:58:03;;;;;;;6.25;1.20;;;4.00;99.90;;;;;;2603260;54;20026;31
2023/02/02 08:00:46;;;;;;;6.60;1.05;;;4.00;99.90;;;;;;2603489;54;20048;31
2023/02/02 08:10:58;;;;;;;3.35;1.10;;;4.10;99.90;;;;;;2602941;54;20952;31
2023/02/02 08:27:09;;;;;;;4.50;0.90;;;4.30;99.90;;;;;;2603311;54;20026;31
2023/02/02 08:30:15;;;;;;;3.30;0.70;;;4.30;99.90;;;;;;2603335;54;20045;31
2023/02/02 08:33:28;;;;;;;4.90;1.02;;;4.30;99.90;;;;;;2610139;46;20242;31
2023/02/02 08:36:14;;;;;;;6.15;1.45;;;4.30;99.90;;;;;;2612901;46;20034;31
2023/02/02 08:42:16;;;;;;;7.63;1.33;;;4.10;99.90;;;;;;2603333;54;20073;31
2023/02/02 08:48:13;;;;;;;8.10;1.50;;;4.20;99.90;;;;;;2603311;54;20982;31
2023/02/02 08:51:20;;;;;;;5.13;1.02;;;4.40;99.90;;;;;;2603326;54;20896;31
2023/02/02 08:54:40;;;;;;;5.00;1.70;;;4.40;99.90;;;;;;2620319;46;20026;31
2023/02/02 10:16:47;;;;;;;3.72;0.70;;;4.20;99.90;;;;;;2603573;54;21059;31
2023/02/02 10:19:30;;;;;;;6.35;0.90;;;4.20;99.90;;;;;;2621060;47;20590;31
2023/02/02 10:22:10;;;;;;;4.20;0.90;;;4.30;99.90;;;;;;2791332;31;20560;31
2023/02/02 10:25:08;;;;;;;5.30;1.25;;;4.40;99.90;;;;;;2603100;54;20762;31
2023/02/02 10:27:50;;;;;;;4.85;1.30;;;4.70;99.90;;;;;;2621241;47;20030;31
2023/02/02 10:30:29;;;;;;;4.20;0.80;;;4.90;99.90;;;;;;2602915;54;20033;31
2023/02/02 10:33:07;;;;;;;9.37;1.00;;;5.10;99.90;;;;;;2603272;54;20968;31
2023/02/02 10:35:52;;;;;;;3.70;0.68;;;5.30;99.90;;;;;;2603498;54;20819;31
2023/02/02 10:38:36;;;;;;;2.72;1.02;;;5.30;99.90;;;;;;2603741;54;20023;31
2023/02/02 10:41:17;;;;;;;3.15;0.70;;;5.30;99.90;;;;;;2702052;39;20498;31
2023/02/02 10:44:08;;;;;;;4.07;0.80;;;5.30;99.90;;;;;;2603459;54;20904;31
2023/02/02 10:46:45;;;;;;;5.38;0.80;;;5.40;99.90;;;;;;2603675;54;20030;31
2023/02/02 10:49:25;;;;;;;4.13;0.80;;;5.50;99.90;;;;;;2603743;54;20811;31
2023/02/02 10:52:07;;;;;;;7.70;1.42;;;5.70;99.90;;;;;;2603604;54;20069;31
2023/02/02 10:55:23;;;;;;;4.53;0.90;;;5.80;99.90;;;;;;2622382;46;21009;31
2023/02/02 10:58:07;;;;;;;8.50;1.23;;;5.90;99.90;;;;;;2603493;54;20060;31
2023/02/02 11:00:47;;;;;;;5.80;1.30;;;5.90;99.90;;;;;;2603472;54;20077;31
2023/02/02 11:09:04;;;;;;;6.50;1.13;;;5.90;99.90;;;;;;2603657;54;20038;31
2023/02/02 11:11:45;;;;;;;5.55;0.82;;;6.00;99.90;;;;;;2603882;54;21085;31
2023/02/02 11:14:29;;;;;;;7.10;1.25;;;6.00;99.90;;;;;;2603607;54;20847;31
2023/02/02 11:17:20;;;;;;;;;;;6.00;99.90;;;;;;2603877;54;20026;31
2023/02/02 11:20:00;;;;;;;4.40;1.00;;;6.00;99.90;;;;;;2603605;54;20754;31
2023/02/02 11:22:45;;;;;;;6.32;1.52;;;6.00;99.90;;;;;;2603607;54;20672;31
2023/02/02 11:25:49;;;;;;;5.88;1.63;;;6.00;99.90;;;;;;2603598;54;20030;31
2023/02/02 11:28:29;;;;;;;6.27;1.53;;;6.10;99.90;;;;;;2603819;54;20030;31
2023/02/02 11:31:29;;;;;;;4.60;0.65;;;6.10;99.90;;;;;;2603678;54;21041;31
2023/02/02 11:37:17;;;;;;;3.75;0.82;;;6.00;99.90;;;;;;2603594;54;20131;31
2023/02/02 11:46:23;;;;;;;4.72;1.02;;;6.00;99.90;;;;;;2603522;54;20238;31
2023/02/02 11:49:28;;;;;;;6.10;0.90;;;6.10;99.90;;;;;;2603535;54;20034;31
2023/02/02 11:55:36;;;;;;;5.78;1.00;;;6.20;99.90;;;;;;2603590;54;20849;31
2023/02/02 11:58:30;;;;;;;6.60;0.80;;;6.10;99.90;;;;;;2603703;54;20558;31
2023/02/02 12:01:19;;;;;;;3.80;0.90;;;6.00;99.90;;;;;;2621766;46;20093;31
2023/02/02 12:04:29;;;;;;;5.18;0.80;;;6.00;99.90;;;;;;2603549;54;20033;31
2023/02/02 12:07:22;;;;;;;2.90;0.82;;;6.10;99.90;;;;;;2621383;46;20023;31
2023/02/02 12:10:22;;;;;;;4.07;0.80;;;6.10;99.90;;;;;;2603595;54;20800;31
2023/02/02 12:13:27;;;;;;;5.13;1.02;;;6.00;99.90;;;;;;2621644;46;20899;31
2023/02/02 12:19:56;;;;;;;6.93;0.77;;;6.00;99.90;;;;;;2702047;39;20488;31
2023/02/02 12:23:05;;;;;;;3.55;0.60;;;5.90;99.90;;;;;;2603426;54;20752;31
2023/02/02 12:25:50;;;;;;;3.53;0.88;;;5.70;99.90;;;;;;2603196;54;20961;31
2023/02/02 12:28:42;;;;;;;2.55;0.65;;;5.50;99.90;;;;;;2603448;54;20037;31
2023/02/02 12:31:45;;;;;;;4.32;0.88;;;5.40;99.90;;;;;;2701826;39;20488;31
2023/02/02 12:34:31;;;;;;;6.53;1.10;;;5.30;99.90;;;;;;2621753;46;20034;31
2023/02/02 12:37:19;;;;;;;5.25;1.00;;;5.30;99.90;;;;;;2603337;54;20052;31
2023/02/02 12:39:57;;;;;;;5.85;1.25;;;5.20;99.90;;;;;;2621197;46;19930;31
2023/02/02 12:42:56;;;;;;;4.00;1.05;;;5.10;99.90;;;;;;2603261;54;20023;31
2023/02/02 12:52:11;;;;;;;7.70;1.40;;;4.90;99.90;;;;;;2621578;46;20756;31
2023/02/02 12:54:56;;;;;;;5.27;0.80;;;4.80;99.90;;;;;;2621245;46;20069;31
2023/02/02 13:01:55;;;;;;;9.67;1.30;;;4.80;99.90;;;;;;2603246;54;20871;31
2023/02/02 13:37:25;;;;;;;7.13;1.75;;;5.00;99.90;;;;;;2702249;39;21693;31
2023/02/02 13:43:37;;;;;;;3.35;1.10;;;5.00;99.90;;;;;;2603276;54;20054;31
2023/02/02 13:53:00;;;;;;;5.20;1.58;;;4.00;99.90;;;;;;2602112;54;20030;31
2023/02/02 13:56:18;;;;;;;2.67;1.20;;;3.70;99.90;;;;;;2603047;54;20832;31
2023/02/02 13:59:04;;;;;;;6.25;1.30;;;3.50;99.90;;;;;;2602886;54;20096;31
2023/02/02 14:04:55;;;;;;;8.98;3.25;;;3.30;99.90;;;;;;2602915;54;20042;31
2023/02/02 14:07:50;;;;;;;10.10;2.85;;;3.30;99.90;;;;;;2602731;54;20771;31
2023/02/02 14:10:31;;;;;;;10.63;3.33;;;3.30;99.90;;;;;;2621657;46;20026;31
2023/02/02 14:17:01;;;;;;;12.40;4.40;;;3.40;99.90;;;;;;2602831;54;20026;31
2023/02/02 14:20:02;;;;;;;17.10;3.95;;;3.50;99.90;;;;;;2603335;54;20030;31
2023/02/02 14:22:50;;;;;;;6.60;2.40;;;3.60;99.90;;;;;;2603002;54;20076;31
2023/02/02 14:45:21;;;;;;;10.95;3.38;;;3.60;99.90;;;;;;2620906;47;20839;31
2023/02/02 14:48:32;;;;;;;6.25;2.20;;;3.60;99.90;;;;;;2603053;54;20042;31
2023/02/02 14:54:40;;;;;;;10.35;3.70;;;3.60;99.90;;;;;;2602582;54;20740;31
2023/02/02 15:12:59;;;;;;;7.45;2.47;;;3.50;99.90;;;;;;2602967;54;20274;31
2023/02/02 16:23:44;;;;;;;4.00;1.30;;;2.60;99.90;;;;;;2602534;54;20030;31
2023/02/02 18:29:30;;;;;;;5.03;2.85;;;1.70;99.90;;;;;;2610390;54;20940;31
2023/02/02 18:35:18;;;;;;;4.68;2.28;;;1.80;99.90;;;;;;2602224;54;20978;31
2023/02/02 18:37:56;;;;;;;4.88;1.65;;;1.80;99.90;;;;;;2602960;54;20867;31
2023/02/02 18:40:35;;;;;;;3.37;1.80;;;1.80;99.90;;;;;;2603270;54;20038;31
2023/02/02 19:40:32;;;;;;;3.15;1.13;;;1.70;99.90;;;;;;2611617;54;20014;31
2023/02/02 19:52:21;;;;;;;4.40;1.77;;;1.70;99.90;;;;;;2602824;54;20287;31
2023/02/02 20:15:04;;;;;;;4.15;1.80;;;1.40;99.90;;;;;;2603409;54;21214;31
2023/02/02 20:20:57;;;;;;;2.90;1.40;;;1.30;99.90;;;;;;2603615;54;20796;31
2023/02/02 21:34:50;;;;;;;9.40;3.17;;;0.50;99.90;;;;;;2602828;54;20046;31
2023/02/02 21:37:27;;;;;;;8.93;3.63;;;0.40;99.90;;;;;;2603219;54;20573;31
2023/02/02 21:40:10;;;;;;;8.70;3.20;;;0.30;99.90;;;;;;2603347;54;20853;31
2023/02/02 21:42:50;;;;;;;7.53;3.25;;;0.30;99.90;;;;;;2603323;54;20970;31
2023/02/02 21:48:26;;;;;;;6.43;2.70;;;0.20;99.90;;;;;;2701052;39;20508;31
2023/02/02 21:51:17;;;;;;;6.87;2.50;;;0.20;99.90;;;;;;2603244;54;20940;31
2023/02/02 21:54:00;;;;;;;7.05;3.20;;;0.10;99.90;;;;;;2603028;54;21658;31
2023/02/02 21:56:39;;;;;;;6.38;3.67;;;0.10;99.90;;;;;;2603158;54;20873;31
2023/02/02 21:59:21;;;;;;;7.90;3.65;;;0.10;99.90;;;;;;2602964;54;20023;31
2023/02/02 22:02:02;;;;;;;6.93;2.90;;;0.10;99.90;;;;;;2621723;46;21416;31
2023/02/02 22:04:42;;;;;;;6.25;3.20;;;0.00;99.90;;;;;;2603041;54;20089;31
2023/02/02 22:07:25;;;;;;;8.10;3.53;;;0.00;99.90;;;;;;2603336;54;21374;31
2023/02/02 22:10:06;;;;;;;7.05;3.20;;;0.00;99.90;;;;;;2621526;46;20029;31
2023/02/02 22:12:50;;;;;;;6.03;3.43;;;0.00;99.90;;;;;;2603178;54;20030;31
2023/02/02 22:15:31;;;;;;;7.13;3.17;;;0.00;99.90;;;;;;2603005;54;19942;31
2023/02/02 22:18:14;;;;;;;8.48;3.65;;;-0.10;99.90;;;;;;2603167;54;20250;31
2023/02/02 22:20:50;;;;;;;11.25;4.00;;;-0.10;99.90;;;;;;2621836;47;20034;31
2023/02/02 22:23:55;;;;;;;12.18;3.97;;;-0.10;99.90;;;;;;2602292;54;20038;31
2023/02/02 22:26:40;;;;;;;10.30;4.82;;;-0.10;99.90;;;;;;2602889;54;20029;31
2023/02/02 22:29:23;;;;;;;9.30;4.60;;;-0.10;99.90;;;;;;2603661;54;20917;31
2023/02/02 22:31:59;;;;;;;13.45;5.93;;;-0.20;99.90;;;;;;2622663;46;20103;31
2023/02/02 22:34:40;;;;;;;12.07;5.38;;;-0.20;99.90;;;;;;2603839;54;20033;31
2023/02/02 22:37:17;;;;;;;11.60;6.63;;;-0.30;99.90;;;;;;2603251;54;20843;31
2023/02/02 22:39:58;;;;;;;10.90;5.60;;;-0.30;99.90;;;;;;2603259;54;20732;31
2023/02/02 22:42:41;;;;;;;9.40;5.30;;;-0.30;99.90;;;;;;2603768;54;20906;31
2023/02/02 22:45:27;;;;;;;11.15;5.25;;;-0.30;99.90;;;;;;2622064;46;20239;31
2023/02/02 22:50:39;;;;;;;12.05;5.75;;;-0.40;99.90;;;;;;2603976;54;20048;31
2023/02/02 22:53:16;;;;;;;14.48;5.97;;;-0.40;99.90;;;;;;2604117;54;20030;31
2023/02/02 22:55:55;;;;;;;;;;;-0.40;99.90;;;;;;2622166;46;20990;31
2023/02/02 22:58:37;;;;;;;14.55;6.95;;;-0.40;99.90;;;;;;2603605;54;19934;31
2023/02/02 23:01:22;;;;;;;12.05;6.05;;;-0.50;99.90;;;;;;2603860;54;20054;31
2023/02/02 23:03:59;;;;;;;15.50;6.95;;;-0.40;99.90;;;;;;2603629;54;20034;31
2023/02/02 23:06:34;;;;;;;15.30;6.30;;;-0.50;99.90;;;;;;2603944;54;20023;31
2023/02/02 23:09:11;;;;;;;;;;;-0.60;99.90;;;;;;2604101;54;20030;31
2023/02/02 23:11:49;;;;;;;11.37;6.77;;;-0.50;99.90;;;;;;2604038;54;20782;31
2023/02/02 23:14:32;;;;;;;9.60;5.05;;;-0.60;99.90;;;;;;2603675;54;20280;31
2023/02/02 23:17:10;;;;;;;10.85;5.40;;;-0.60;99.90;;;;;;2702586;39;21097;31
2023/02/02 23:19:45;;;;;;;14.13;5.37;;;-0.60;99.90;;;;;;2603673;54;20085;31
2023/02/02 23:22:21;;;;;;;10.35;6.03;;;-0.60;99.90;;;;;;2603471;54;20877;31
2023/02/02 23:25:02;;;;;;;11.95;6.00;;;-0.60;99.90;;;;;;2702507;39;20996;31
2023/02/02 23:27:44;;;;;;;13.27;6.20;;;-0.70;99.90;;;;;;2603614;54;20036;31
2023/02/02 23:30:27;;;;;;;9.90;5.25;;;-0.70;99.90;;;;;;2603846;54;20037;31
2023/02/02 23:33:04;;;;;;;11.75;5.05;;;-0.70;99.90;;;;;;2603775;54;20853;31
2023/02/02 23:35:41;;;;;;;12.68;5.20;;;-0.70;99.90;;;;;;2603753;54;20739;31
2023/02/02 23:38:17;;;;;;;9.05;4.65;;;-0.60;99.90;;;;;;2603779;54;20132;31
2023/02/02 23:40:54;;;;;;;10.80;4.70;;;-0.70;99.90;;;;;;2603069;54;20030;31
2023/02/02 23:43:30;;;;;;;10.00;5.28;;;-0.70;99.90;;;;;;2603538;54;20038;31
2023/02/02 23:46:16;;;;;;;8.73;4.17;;;-0.70;99.90;;;;;;2603654;54;20027;31
2023/02/02 23:48:52;;;;;;;10.38;5.45;;;-0.70;99.90;;;;;;2603407;54;20782;31
2023/02/02 23:51:29;;;;;;;11.50;5.55;;;-0.70;99.90;;;;;;2603896;54;20029;31
2023/02/02 23:56:57;;;;;;;8.70;4.50;;;-0.70;99.90;;;;;;2603524;54;19985;31
2023/02/02 23:59:34;;;;;;;8.95;3.83;;;-0.70;99.90;;;;;;2603885;54;20842;31
